Time;durP1;ratioP1;P1;durP2;ratioP2;P2;SDS_P1;SDS_P2;PMS_P1;PMS_P2;Temp;Humidity;BMP_temperature;BMP_pressure;BME280_temperature;BME280_humidity;BME280_pressure;Samples;Min_cycle;Max_cycle;Signal;HPM_P1;HPM_P2
2023/09/23 00:02:18;;;;;;;1.77;1.38;;;12.70;99.90;;;;;;5081939;28;20042;-63
2023/09/23 00:04:44;;;;;;;1.90;1.20;;;12.70;99.90;;;;;;5078499;28;20036;-64
2023/09/23 00:07:10;;;;;;;1.90;1.40;;;12.60;99.90;;;;;;5094525;28;20666;-63
2023/09/23 00:09:36;;;;;;;1.40;1.30;;;12.60;99.90;;;;;;5078136;28;20483;-63
2023/09/23 00:12:03;;;;;;;1.98;1.30;;;12.60;99.90;;;;;;5076217;28;20097;-64
2023/09/23 00:14:28;;;;;;;1.90;1.33;;;12.60;99.90;;;;;;5090499;28;20044;-63
2023/09/23 00:16:54;;;;;;;1.42;1.10;;;12.50;99.90;;;;;;5085676;28;20050;-63
2023/09/23 00:19:20;;;;;;;1.60;1.00;;;12.50;99.90;;;;;;5080520;28;20632;-64
2023/09/23 00:21:47;;;;;;;2.33;0.82;;;12.50;99.90;;;;;;5095924;28;20115;-63
2023/09/23 00:24:13;;;;;;;1.45;0.70;;;12.40;99.90;;;;;;5076407;28;20505;-64
2023/09/23 00:26:39;;;;;;;1.95;0.80;;;12.40;99.90;;;;;;5078996;28;20043;-64
2023/09/23 00:29:05;;;;;;;1.20;0.70;;;12.40;99.90;;;;;;5081594;28;20123;-63
2023/09/23 00:31:30;;;;;;;1.08;0.57;;;12.30;99.90;;;;;;5092616;28;20031;-63
2023/09/23 00:33:56;;;;;;;0.88;0.50;;;12.30;99.90;;;;;;5094500;28;20028;-63
2023/09/23 00:36:22;;;;;;;0.60;0.40;;;12.30;99.90;;;;;;5090345;28;20091;-63
2023/09/23 00:38:48;;;;;;;3.05;0.45;;;12.20;99.90;;;;;;5083885;28;20070;-63
2023/09/23 00:41:14;;;;;;;0.70;0.50;;;12.20;99.90;;;;;;5076509;28;20043;-63
2023/09/23 00:43:40;;;;;;;0.65;0.40;;;12.20;99.90;;;;;;5091690;28;20505;-63
2023/09/23 00:46:07;;;;;;;0.50;0.40;;;12.20;99.90;;;;;;5095590;28;20051;-63
2023/09/23 00:48:39;;;;;;;1.02;0.47;;;12.30;99.90;;;;;;5095616;28;20054;-64
2023/09/23 00:51:09;;;;;;;0.85;0.50;;;12.30;99.90;;;;;;5102599;28;20024;-63
2023/09/23 00:53:36;;;;;;;1.02;0.40;;;12.30;99.90;;;;;;5077368;28;20522;-63
2023/09/23 00:56:03;;;;;;;1.48;0.30;;;12.30;99.90;;;;;;5093059;28;20040;-63
2023/09/23 00:58:29;;;;;;;0.47;0.40;;;12.20;99.90;;;;;;5072050;28;20066;-63
2023/09/23 01:00:56;;;;;;;0.50;0.40;;;12.20;99.90;;;;;;5064376;28;20272;-63
2023/09/23 01:03:22;;;;;;;0.45;0.45;;;12.20;99.90;;;;;;5080135;28;20560;-64
2023/09/23 01:05:58;;;;;;;1.48;0.52;;;12.30;99.90;;;;;;5092740;28;20110;-63
2023/09/23 01:08:25;;;;;;;0.40;0.40;;;12.30;99.90;;;;;;5087682;28;20043;-63
2023/09/23 01:10:51;;;;;;;1.75;0.68;;;12.30;99.90;;;;;;5093433;28;20044;-62
2023/09/23 01:13:21;;;;;;;1.45;0.80;;;12.30;99.90;;;;;;5088372;28;20407;-63
2023/09/23 01:15:47;;;;;;;1.88;1.10;;;12.30;99.90;;;;;;5076355;28;20148;-64
2023/09/23 01:18:13;;;;;;;2.28;1.33;;;12.30;99.90;;;;;;5060620;28;20044;-64
2023/09/23 01:20:42;;;;;;;1.90;1.60;;;12.30;99.90;;;;;;5087823;28;20032;-63
2023/09/23 01:23:12;;;;;;;2.85;1.58;;;12.30;99.90;;;;;;5083432;28;20055;-63
2023/09/23 01:25:38;;;;;;;2.67;1.88;;;12.30;99.90;;;;;;5085328;28;20036;-63
2023/09/23 01:28:08;;;;;;;2.72;2.28;;;12.30;99.90;;;;;;5092900;28;20046;-63
2023/09/23 01:30:35;;;;;;;3.67;2.50;;;12.30;99.90;;;;;;5093049;28;20385;-63
2023/09/23 01:33:02;;;;;;;3.05;2.58;;;12.30;99.90;;;;;;5104583;28;20417;-64
2023/09/23 01:35:28;;;;;;;3.65;2.78;;;12.30;99.90;;;;;;5082250;28;20039;-63
2023/09/23 01:37:54;;;;;;;3.00;2.70;;;12.30;99.90;;;;;;5074282;28;20060;-63
2023/09/23 01:40:20;;;;;;;3.60;3.20;;;12.30;99.90;;;;;;5091411;28;20043;-63
2023/09/23 01:42:49;;;;;;;3.20;2.90;;;12.30;99.90;;;;;;5083683;28;20120;-63
2023/09/23 01:45:15;;;;;;;3.83;3.10;;;12.30;99.90;;;;;;5091447;28;20071;-64
2023/09/23 01:47:41;;;;;;;3.53;3.03;;;12.20;99.90;;;;;;5081178;28;20051;-65
2023/09/23 01:50:09;;;;;;;3.58;3.28;;;12.20;99.90;;;;;;5086543;28;20437;-63
2023/09/23 01:52:36;;;;;;;3.88;2.97;;;12.20;99.90;;;;;;5087125;28;20089;-64
2023/09/23 01:55:04;;;;;;;3.08;2.75;;;12.20;99.90;;;;;;5077492;28;20043;-63
2023/09/23 01:57:33;;;;;;;4.80;3.13;;;12.20;99.90;;;;;;5090323;28;20141;-63
2023/09/23 02:00:00;;;;;;;3.20;2.72;;;12.20;99.90;;;;;;5084098;28;20054;-64
2023/09/23 02:02:27;;;;;;;3.03;2.63;;;12.10;99.90;;;;;;5079814;28;20047;-63
2023/09/23 02:04:53;;;;;;;3.35;2.45;;;12.10;99.90;;;;;;5062942;28;20048;-64
2023/09/23 02:07:19;;;;;;;3.10;2.60;;;12.10;99.90;;;;;;5081631;28;20518;-63
2023/09/23 02:09:45;;;;;;;3.45;3.00;;;12.10;99.90;;;;;;5080509;28;20078;-63
2023/09/23 02:12:12;;;;;;;3.45;3.15;;;12.10;99.90;;;;;;5076969;28;20051;-63
2023/09/23 02:14:42;;;;;;;3.85;3.45;;;12.00;99.90;;;;;;5080464;28;20487;-63
2023/09/23 02:17:08;;;;;;;3.03;2.72;;;12.00;99.90;;;;;;5080990;28;20035;-64
2023/09/23 02:19:34;;;;;;;4.15;2.88;;;12.00;99.90;;;;;;5093337;28;20043;-64
2023/09/23 02:22:04;;;;;;;3.53;3.22;;;12.00;99.90;;;;;;5087392;28;20089;-63
2023/09/23 02:24:31;;;;;;;4.18;2.88;;;11.90;99.90;;;;;;5091057;28;20051;-63
2023/09/23 02:26:57;;;;;;;3.28;2.80;;;11.90;99.90;;;;;;5073853;28;20044;-63
2023/09/23 02:29:22;;;;;;;4.43;3.00;;;11.90;99.90;;;;;;5091868;28;20477;-63
2023/09/23 02:31:49;;;;;;;3.20;2.90;;;11.90;99.90;;;;;;5076114;28;20048;-63
2023/09/23 02:34:18;;;;;;;4.97;3.05;;;11.90;99.90;;;;;;5076357;28;20043;-63
2023/09/23 02:36:50;;;;;;;3.72;3.33;;;11.90;99.90;;;;;;5091498;28;20063;-64
2023/09/23 02:39:19;;;;;;;4.55;3.45;;;11.80;99.90;;;;;;5073569;28;20545;-63
2023/09/23 02:41:50;;;;;;;5.22;3.78;;;11.80;99.90;;;;;;5083131;28;20044;-63
2023/09/23 02:44:22;;;;;;;4.35;3.42;;;11.70;99.90;;;;;;5087779;28;20059;-64
2023/09/23 02:46:54;;;;;;;3.78;3.42;;;11.70;99.90;;;;;;5083820;28;21843;-63
2023/09/23 02:49:20;;;;;;;5.25;3.38;;;11.80;99.90;;;;;;5093508;28;20043;-63
2023/09/23 02:51:49;;;;;;;4.35;3.58;;;11.70;99.90;;;;;;5091476;28;20681;-63
2023/09/23 02:54:17;;;;;;;4.43;3.78;;;11.70;99.90;;;;;;5073955;28;20036;-62
2023/09/23 02:56:48;;;;;;;4.53;3.60;;;11.70;99.90;;;;;;5089785;28;20051;-64
2023/09/23 02:59:15;;;;;;;4.45;4.03;;;11.70;99.90;;;;;;5082011;28;20406;-63
2023/09/23 03:01:45;;;;;;;4.03;3.40;;;11.70;99.90;;;;;;5108947;28;20395;-63
2023/09/23 03:04:23;;;;;;;3.92;3.55;;;11.60;99.90;;;;;;5102811;28;20042;-63
2023/09/23 03:07:01;;;;;;;4.28;3.85;;;11.60;99.90;;;;;;5089542;28;20387;-63
2023/09/23 03:09:32;;;;;;;5.30;4.05;;;11.60;99.90;;;;;;5080424;28;20490;-63
2023/09/23 03:12:00;;;;;;;4.40;4.00;;;11.50;99.90;;;;;;5098777;28;20097;-63
2023/09/23 03:14:40;;;;;;;3.80;3.50;;;11.50;99.90;;;;;;5073145;28;20043;-64
2023/09/23 03:17:07;;;;;;;4.15;3.70;;;11.50;99.90;;;;;;5082194;28;20052;-62
2023/09/23 03:19:33;;;;;;;4.47;3.83;;;11.50;99.90;;;;;;5073154;28;20441;-64
2023/09/23 03:22:00;;;;;;;3.90;3.60;;;11.40;99.90;;;;;;5072897;28;20427;-63
2023/09/23 03:24:31;;;;;;;4.45;3.90;;;11.40;99.90;;;;;;5079136;28;20050;-63
2023/09/23 03:26:59;;;;;;;4.80;3.85;;;11.40;99.90;;;;;;5081705;28;20047;-63
2023/09/23 03:29:30;;;;;;;4.97;3.95;;;11.40;99.90;;;;;;5100319;28;20592;-63
2023/09/23 03:31:56;;;;;;;4.30;3.90;;;11.30;99.90;;;;;;5079479;28;20066;-63
2023/09/23 03:34:23;;;;;;;4.03;3.55;;;11.30;99.90;;;;;;5083878;28;20513;-63
2023/09/23 03:36:49;;;;;;;4.68;4.07;;;11.20;99.90;;;;;;5085352;28;20055;-63
2023/09/23 03:39:17;;;;;;;4.15;3.63;;;11.20;99.90;;;;;;5062747;28;20048;-63
2023/09/23 03:41:46;;;;;;;4.10;3.70;;;11.20;99.90;;;;;;5078403;28;20104;-62
2023/09/23 03:44:14;;;;;;;3.90;3.40;;;11.20;99.90;;;;;;5093923;28;20048;-63
2023/09/23 03:46:41;;;;;;;4.88;3.65;;;11.10;99.90;;;;;;5084429;28;20494;-63
2023/09/23 03:49:06;;;;;;;6.85;4.00;;;11.10;99.90;;;;;;5105925;28;20046;-63
2023/09/23 03:51:33;;;;;;;4.43;4.03;;;11.10;99.90;;;;;;5064743;28;20460;-63
2023/09/23 03:53:59;;;;;;;5.10;3.67;;;11.10;99.90;;;;;;5094082;28;20040;-63
2023/09/23 03:56:27;;;;;;;5.60;4.03;;;11.10;99.90;;;;;;5080893;28;20044;-64
2023/09/23 03:58:55;;;;;;;5.50;4.53;;;11.10;99.90;;;;;;5072533;28;20117;-63
2023/09/23 04:01:23;;;;;;;4.20;3.80;;;11.10;99.90;;;;;;5075672;28;20616;-63
2023/09/23 04:03:51;;;;;;;4.30;3.90;;;11.00;99.90;;;;;;5077639;28;20036;-62
2023/09/23 04:06:17;;;;;;;4.78;4.03;;;11.10;99.90;;;;;;5103392;28;20479;-63
2023/09/23 04:08:43;;;;;;;5.10;4.15;;;11.10;99.90;;;;;;5092557;28;20039;-63
2023/09/23 04:11:10;;;;;;;5.53;4.55;;;11.10;99.90;;;;;;5076210;28;20055;-64
2023/09/23 04:13:37;;;;;;;6.72;4.32;;;11.10;99.90;;;;;;5096883;28;20414;-62
2023/09/23 04:16:05;;;;;;;4.95;4.43;;;11.20;99.90;;;;;;5089489;28;20440;-63
2023/09/23 04:18:31;;;;;;;5.25;4.63;;;11.10;99.90;;;;;;5083742;28;20036;-63
2023/09/23 04:20:58;;;;;;;4.70;4.03;;;11.10;99.90;;;;;;5085783;28;20043;-63
2023/09/23 04:23:23;;;;;;;5.68;4.43;;;11.10;99.90;;;;;;5083809;28;20092;-63
2023/09/23 04:25:50;;;;;;;4.75;4.22;;;11.10;99.90;;;;;;5061566;28;20453;-63
2023/09/23 04:28:16;;;;;;;4.63;4.15;;;11.10;99.90;;;;;;5080209;28;20063;-63
2023/09/23 04:30:42;;;;;;;4.90;4.40;;;11.10;99.90;;;;;;5087412;28;20040;-63
2023/09/23 04:33:07;;;;;;;4.45;4.05;;;11.00;99.90;;;;;;5080934;28;20040;-64
2023/09/23 04:35:34;;;;;;;4.70;4.20;;;11.10;99.90;;;;;;5078506;28;20111;-63
2023/09/23 04:38:00;;;;;;;7.55;4.60;;;11.00;99.90;;;;;;5083565;28;20403;-62
2023/09/23 04:40:26;;;;;;;5.10;4.60;;;11.00;99.90;;;;;;5080596;28;20048;-63
2023/09/23 04:42:52;;;;;;;5.20;4.70;;;10.90;99.90;;;;;;5081885;28;20062;-63
2023/09/23 04:45:19;;;;;;;6.75;5.35;;;10.90;99.90;;;;;;5078550;28;20048;-64
2023/09/23 04:47:50;;;;;;;6.70;5.40;;;10.90;99.90;;;;;;5083859;28;20059;-63
2023/09/23 04:50:22;;;;;;;7.00;5.00;;;10.90;99.90;;;;;;5081043;28;20062;-63
2023/09/23 04:52:50;;;;;;;5.32;4.75;;;10.90;99.90;;;;;;5086299;28;20057;-64
2023/09/23 04:55:16;;;;;;;6.45;5.60;;;10.90;99.90;;;;;;5076835;28;20499;-63
2023/09/23 04:57:41;;;;;;;5.78;5.25;;;10.90;99.90;;;;;;5095059;28;20050;-63
2023/09/23 05:00:09;;;;;;;6.03;5.43;;;10.80;99.90;;;;;;5089975;28;20124;-63
2023/09/23 05:02:36;;;;;;;6.18;5.53;;;10.90;99.90;;;;;;5095650;28;20374;-63
2023/09/23 05:05:03;;;;;;;6.55;5.85;;;10.80;99.90;;;;;;5064903;28;20075;-64
2023/09/23 05:07:29;;;;;;;8.15;7.18;;;10.80;99.90;;;;;;5074783;28;20032;-63
2023/09/23 05:09:57;;;;;;;9.30;7.15;;;10.80;99.90;;;;;;5077166;28;20051;-63
2023/09/23 05:12:24;;;;;;;9.10;7.25;;;10.80;99.90;;;;;;5090577;28;20054;-63
2023/09/23 05:14:49;;;;;;;8.98;7.20;;;10.80;99.90;;;;;;5094561;28;20044;-63
2023/09/23 05:17:16;;;;;;;8.23;7.10;;;10.80;99.90;;;;;;5082823;28;20049;-62
2023/09/23 05:19:42;;;;;;;9.88;8.30;;;10.80;99.90;;;;;;5094811;28;20057;-63
2023/09/23 05:22:10;;;;;;;9.02;8.10;;;10.80;99.90;;;;;;5088683;28;20402;-63
2023/09/23 05:24:35;;;;;;;10.57;8.63;;;10.90;99.90;;;;;;5058554;28;20052;-63
2023/09/23 05:27:01;;;;;;;11.00;8.95;;;10.90;99.90;;;;;;5084222;28;20055;-62
2023/09/23 05:29:26;;;;;;;10.20;8.82;;;10.90;99.90;;;;;;5074605;28;20123;-63
2023/09/23 05:31:52;;;;;;;11.00;9.80;;;10.90;99.90;;;;;;5074942;28;20032;-62
2023/09/23 05:34:21;;;;;;;13.80;10.50;;;10.90;99.90;;;;;;5094092;28;20028;-63
2023/09/23 05:36:47;;;;;;;14.52;10.68;;;10.90;99.90;;;;;;5087350;28;20051;-64
2023/09/23 05:39:18;;;;;;;12.65;10.60;;;10.90;99.90;;;;;;5083076;28;20537;-64
2023/09/23 05:41:47;;;;;;;15.05;11.93;;;11.00;99.90;;;;;;5092667;28;20506;-63
2023/09/23 05:44:15;;;;;;;14.88;12.20;;;11.00;99.90;;;;;;5079019;28;20044;-62
2023/09/23 05:46:42;;;;;;;18.00;12.57;;;11.00;99.90;;;;;;5077342;28;20040;-63
2023/09/23 05:49:12;;;;;;;17.90;12.75;;;11.00;99.90;;;;;;5093663;28;20110;-62
2023/09/23 05:51:38;;;;;;;14.70;12.48;;;11.00;99.90;;;;;;5085214;28;20368;-63
2023/09/23 05:54:04;;;;;;;16.95;13.52;;;11.00;99.90;;;;;;5101622;28;20035;-63
2023/09/23 05:56:29;;;;;;;15.93;12.93;;;11.00;99.90;;;;;;5075881;28;20600;-63
2023/09/23 05:58:55;;;;;;;17.42;13.10;;;11.00;99.90;;;;;;5090251;28;20440;-64
2023/09/23 06:01:21;;;;;;;17.50;13.98;;;11.00;99.90;;;;;;5083714;28;20024;-64
2023/09/23 06:03:48;;;;;;;19.92;15.50;;;11.00;99.90;;;;;;5090489;28;20032;-64
2023/09/23 06:06:14;;;;;;;18.67;14.60;;;11.00;99.90;;;;;;5089397;28;20039;-63
2023/09/23 06:08:39;;;;;;;18.17;15.57;;;11.00;99.90;;;;;;5087503;28;20483;-63
2023/09/23 06:11:05;;;;;;;19.30;15.43;;;11.10;99.90;;;;;;5093491;28;20165;-63
2023/09/23 06:13:32;;;;;;;20.25;16.08;;;11.10;99.90;;;;;;5084807;28;20036;-64
2023/09/23 06:16:05;;;;;;;16.90;14.88;;;11.20;99.90;;;;;;5089549;28;20035;-63
2023/09/23 06:18:31;;;;;;;19.70;16.00;;;11.20;99.90;;;;;;5093592;28;20044;-62
2023/09/23 06:21:01;;;;;;;21.38;16.65;;;11.30;99.90;;;;;;5095281;28;20046;-63
2023/09/23 06:23:27;;;;;;;18.50;15.75;;;11.40;99.90;;;;;;5063561;28;20093;-63
2023/09/23 06:26:02;;;;;;;20.80;16.75;;;11.50;99.90;;;;;;5101628;28;20166;-64
2023/09/23 06:28:29;;;;;;;19.90;16.33;;;11.50;99.90;;;;;;5084979;28;20529;-64
2023/09/23 06:30:55;;;;;;;20.02;17.30;;;11.60;99.90;;;;;;5089646;28;20133;-63
2023/09/23 06:33:21;;;;;;;21.30;17.30;;;11.80;99.90;;;;;;5073446;28;20085;-63
2023/09/23 06:35:48;;;;;;;23.27;16.98;;;11.80;99.90;;;;;;5091467;28;20031;-63
2023/09/23 06:38:13;;;;;;;20.25;17.50;;;11.90;99.90;;;;;;5077131;28;20109;-63
2023/09/23 06:40:39;;;;;;;21.08;17.35;;;11.90;99.90;;;;;;5081121;28;20433;-63
2023/09/23 06:43:05;;;;;;;20.50;17.85;;;12.00;99.90;;;;;;5080409;28;20125;-63
2023/09/23 06:45:31;;;;;;;19.30;16.70;;;12.00;99.90;;;;;;5090067;28;20040;-64
2023/09/23 06:47:56;;;;;;;22.20;17.15;;;12.10;99.90;;;;;;5090804;28;20051;-64
2023/09/23 06:50:22;;;;;;;23.58;16.70;;;12.10;99.90;;;;;;5078237;28;20051;-65
2023/09/23 06:52:48;;;;;;;18.92;16.58;;;12.10;99.90;;;;;;5084084;28;20059;-64
2023/09/23 06:55:14;;;;;;;20.10;17.30;;;12.10;99.90;;;;;;5089459;28;20151;-64
2023/09/23 06:57:39;;;;;;;19.20;16.48;;;12.10;99.90;;;;;;5089706;28;20052;-63
2023/09/23 07:00:07;;;;;;;21.75;16.67;;;12.20;99.90;;;;;;5084923;28;20044;-64
2023/09/23 07:02:33;;;;;;;23.20;16.35;;;12.10;99.90;;;;;;5076087;28;20047;-63
2023/09/23 07:04:59;;;;;;;19.88;15.80;;;12.10;99.90;;;;;;5070755;28;20044;-63
2023/09/23 07:07:25;;;;;;;21.80;16.92;;;12.20;99.90;;;;;;5069157;28;20072;-64
2023/09/23 07:09:51;;;;;;;19.63;15.63;;;12.20;99.90;;;;;;5069306;28;20432;-64
2023/09/23 07:12:17;;;;;;;19.63;15.65;;;12.20;99.90;;;;;;5080385;28;20043;-64
2023/09/23 07:14:42;;;;;;;17.85;15.68;;;12.20;99.90;;;;;;5076627;28;20386;-63
2023/09/23 07:17:08;;;;;;;17.42;15.43;;;12.20;99.90;;;;;;5071954;28;20474;-63
2023/09/23 07:19:34;;;;;;;19.00;15.57;;;12.30;99.90;;;;;;5089629;28;20538;-65
2023/09/23 07:22:00;;;;;;;17.65;14.95;;;12.30;99.90;;;;;;5083525;28;20032;-63
2023/09/23 07:24:26;;;;;;;19.58;15.93;;;12.30;99.90;;;;;;5070766;28;20040;-64
2023/09/23 07:26:58;;;;;;;20.30;15.55;;;12.30;99.90;;;;;;5072785;28;20059;-64
2023/09/23 07:29:24;;;;;;;;;;;12.30;99.90;;;;;;5064383;28;20493;-64
2023/09/23 07:31:55;;;;;;;19.38;14.77;;;12.30;99.90;;;;;;5079953;28;19966;-63
2023/09/23 07:34:21;;;;;;;18.58;15.60;;;12.30;99.90;;;;;;5068598;28;20392;-63
2023/09/23 07:36:47;;;;;;;18.23;14.82;;;12.40;99.90;;;;;;5069049;28;20083;-62
2023/09/23 07:39:15;;;;;;;18.48;15.63;;;12.40;99.90;;;;;;5090037;28;20487;-64
2023/09/23 07:41:40;;;;;;;17.75;15.75;;;12.50;99.90;;;;;;5084977;28;20522;-63
2023/09/23 07:44:06;;;;;;;18.25;15.00;;;12.60;99.90;;;;;;5080399;28;20039;-63
2023/09/23 07:46:32;;;;;;;18.38;15.40;;;12.70;99.90;;;;;;5073698;28;20045;-63
2023/09/23 07:48:58;;;;;;;18.73;14.88;;;12.90;99.90;;;;;;5075346;28;20090;-64
2023/09/23 07:51:23;;;;;;;16.77;15.07;;;13.20;99.90;;;;;;5056651;28;20037;-64
2023/09/23 07:53:52;;;;;;;15.40;13.80;;;13.50;99.90;;;;;;5074347;28;20036;-63
2023/09/23 07:56:18;;;;;;;17.98;12.80;;;13.60;99.90;;;;;;5079095;28;20037;-64
2023/09/23 07:58:43;;;;;;;14.88;12.60;;;13.70;99.90;;;;;;5083687;28;20047;-63
2023/09/23 08:01:09;;;;;;;13.32;11.93;;;13.60;99.90;;;;;;5084689;28;20035;-65
2023/09/23 08:03:35;;;;;;;13.40;11.93;;;13.60;99.90;;;;;;5075708;28;20040;-64
2023/09/23 08:06:00;;;;;;;13.82;11.55;;;13.50;99.90;;;;;;5087238;28;20039;-63
2023/09/23 08:08:26;;;;;;;13.00;11.55;;;13.50;99.90;;;;;;5080640;28;20044;-63
2023/09/23 08:10:53;;;;;;;13.57;10.68;;;13.60;99.90;;;;;;5088408;28;20081;-64
2023/09/23 08:13:20;;;;;;;12.30;11.00;;;13.80;99.90;;;;;;5079093;28;20036;-64
2023/09/23 08:15:46;;;;;;;13.18;10.77;;;14.00;99.90;;;;;;5079374;28;20399;-64
2023/09/23 08:18:12;;;;;;;12.05;10.85;;;14.20;99.90;;;;;;5083234;28;20040;-63
2023/09/23 08:20:41;;;;;;;13.00;10.15;;;14.40;99.90;;;;;;5080506;28;20498;-63
2023/09/23 08:23:07;;;;;;;12.60;10.32;;;14.30;99.90;;;;;;5081648;28;20028;-64
2023/09/23 08:25:34;;;;;;;13.30;10.25;;;14.40;99.90;;;;;;5078494;28;20040;-64
2023/09/23 08:28:01;;;;;;;11.38;9.38;;;14.20;99.90;;;;;;5072995;28;20048;-64
2023/09/23 08:30:26;;;;;;;11.00;9.88;;;14.30;99.90;;;;;;5075259;28;20116;-64
2023/09/23 08:32:53;;;;;;;11.38;9.35;;;14.50;99.90;;;;;;5079940;28;20529;-63
2023/09/23 08:35:18;;;;;;;10.10;9.07;;;14.70;99.90;;;;;;5079922;28;20044;-62
2023/09/23 08:37:45;;;;;;;10.80;9.32;;;14.70;99.90;;;;;;5085171;28;20526;-63
2023/09/23 08:40:12;;;;;;;10.68;9.57;;;14.70;99.90;;;;;;5085755;28;20052;-63
2023/09/23 08:42:39;;;;;;;12.20;9.82;;;14.60;99.90;;;;;;5073321;28;20036;-63
2023/09/23 08:45:09;;;;;;;10.20;9.10;;;14.60;99.90;;;;;;5086370;28;20097;-63
2023/09/23 08:47:38;;;;;;;10.43;8.93;;;14.70;99.90;;;;;;5082170;28;20848;-63
2023/09/23 08:50:08;;;;;;;9.48;8.52;;;14.80;99.90;;;;;;5062691;28;20036;-63
2023/09/23 08:52:34;;;;;;;10.32;8.00;;;14.90;99.90;;;;;;5057969;28;20037;-62
2023/09/23 08:55:04;;;;;;;8.80;7.90;;;15.20;99.90;;;;;;5084985;28;20044;-63
2023/09/23 08:57:30;;;;;;;9.73;7.75;;;15.10;99.90;;;;;;5092170;28;20043;-63
2023/09/23 08:59:59;;;;;;;9.30;7.60;;;15.20;99.90;;;;;;5080941;28;20048;-63
2023/09/23 09:02:26;;;;;;;9.05;8.10;;;15.10;99.90;;;;;;5083468;28;20039;-64
2023/09/23 09:04:54;;;;;;;9.07;7.28;;;15.20;99.90;;;;;;5091719;28;20047;-63
2023/09/23 09:07:32;;;;;;;8.57;7.15;;;15.20;99.90;;;;;;5091758;28;20054;-63
2023/09/23 09:09:57;;;;;;;9.38;6.38;;;15.20;99.90;;;;;;5079091;28;20060;-64
2023/09/23 09:12:23;;;;;;;8.13;6.40;;;15.40;99.90;;;;;;5083796;28;20076;-63
2023/09/23 09:14:50;;;;;;;7.03;6.38;;;15.70;99.90;;;;;;5062607;28;20127;-63
2023/09/23 09:17:16;;;;;;;8.45;5.60;;;16.10;99.90;;;;;;5079389;28;20044;-64
2023/09/23 09:19:42;;;;;;;9.75;5.75;;;16.30;99.90;;;;;;5076149;28;20050;-63
2023/09/23 09:22:07;;;;;;;6.00;5.40;;;16.30;99.90;;;;;;5080818;28;20079;-63
2023/09/23 09:24:33;;;;;;;7.57;5.07;;;16.30;99.90;;;;;;5077389;28;20066;-64
2023/09/23 09:26:59;;;;;;;6.38;4.90;;;16.60;99.90;;;;;;5087533;28;20040;-64
2023/09/23 09:29:25;;;;;;;7.80;4.78;;;16.90;99.90;;;;;;5080684;28;20043;-63
2023/09/23 09:31:51;;;;;;;6.75;4.65;;;17.20;99.90;;;;;;5070326;28;20048;-64
2023/09/23 09:34:23;;;;;;;6.35;4.43;;;17.30;99.90;;;;;;5076651;28;20044;-63
2023/09/23 09:36:56;;;;;;;5.30;3.95;;;17.20;99.90;;;;;;5082351;28;20485;-63
2023/09/23 09:39:28;;;;;;;5.93;3.92;;;16.90;99.90;;;;;;5090823;28;20071;-63
2023/09/23 09:41:57;;;;;;;5.40;3.65;;;16.50;99.90;;;;;;5077338;28;20036;-63
2023/09/23 09:44:27;;;;;;;4.50;3.83;;;16.40;99.90;;;;;;5080202;28;20036;-63
2023/09/23 09:46:55;;;;;;;5.95;3.50;;;16.80;99.90;;;;;;5076884;28;20123;-64
2023/09/23 09:49:21;;;;;;;6.55;3.30;;;17.00;99.90;;;;;;5092310;28;20043;-65
2023/09/23 09:51:48;;;;;;;5.53;3.47;;;17.30;99.90;;;;;;5090623;28;20097;-65
2023/09/23 09:54:19;;;;;;;5.43;3.10;;;17.60;99.90;;;;;;5112504;28;20475;-63
2023/09/23 09:56:47;;;;;;;6.53;3.58;;;17.80;99.90;;;;;;5093477;28;20103;-63
2023/09/23 09:59:27;;;;;;;5.82;3.33;;;17.80;99.90;;;;;;5074043;28;20042;-63
2023/09/23 10:01:56;;;;;;;6.13;3.00;;;17.60;99.90;;;;;;5073805;28;20051;-63
2023/09/23 10:04:22;;;;;;;4.80;3.03;;;17.40;99.90;;;;;;5102755;28;20067;-64
2023/09/23 10:06:56;;;;;;;4.35;2.45;;;17.60;99.90;;;;;;5088305;28;20063;-63
2023/09/23 10:09:29;;;;;;;5.72;2.47;;;17.40;99.90;;;;;;5080501;28;20046;-63
2023/09/23 10:11:58;;;;;;;3.40;2.38;;;17.00;99.90;;;;;;5085967;28;20084;-63
2023/09/23 10:14:27;;;;;;;4.80;2.75;;;16.90;99.90;;;;;;5106627;28;20035;-64
2023/09/23 10:16:59;;;;;;;5.15;2.75;;;16.70;99.90;;;;;;5098257;28;20028;-63
2023/09/23 10:19:39;;;;;;;4.82;2.75;;;16.90;99.90;;;;;;5090310;28;20039;-63
2023/09/23 10:22:20;;;;;;;5.85;2.50;;;16.90;99.90;;;;;;5081866;28;20424;-63
2023/09/23 10:25:04;;;;;;;5.53;2.30;;;17.00;99.90;;;;;;5082063;28;20123;-63
2023/09/23 10:27:36;;;;;;;3.33;2.28;;;16.90;99.90;;;;;;5083371;28;20040;-64
2023/09/23 10:30:02;;;;;;;;;;;16.90;99.90;;;;;;5073428;28;20289;-64
2023/09/23 10:32:28;;;;;;;3.60;2.20;;;16.90;99.90;;;;;;5079672;28;20348;-63
2023/09/23 10:34:58;;;;;;;3.72;2.13;;;17.20;99.90;;;;;;5083416;28;20093;-63
2023/09/23 10:37:25;;;;;;;5.45;1.95;;;17.30;99.90;;;;;;5092617;28;20464;-64
2023/09/23 10:39:51;;;;;;;3.50;2.20;;;17.10;99.90;;;;;;5093438;28;20512;-64
2023/09/23 10:42:17;;;;;;;5.60;2.30;;;17.10;99.90;;;;;;5101850;28;20119;-63
2023/09/23 10:44:45;;;;;;;4.38;2.15;;;17.20;99.90;;;;;;5084120;28;20079;-63
2023/09/23 10:47:10;;;;;;;3.92;2.30;;;17.20;99.90;;;;;;5073112;28;20047;-63
2023/09/23 10:49:36;;;;;;;5.22;2.25;;;17.30;99.90;;;;;;5073361;28;20043;-64
2023/09/23 10:52:02;;;;;;;4.75;2.30;;;17.20;99.90;;;;;;5104844;28;20027;-63
2023/09/23 10:54:28;;;;;;;4.68;2.10;;;17.20;99.90;;;;;;5093976;28;20115;-64
2023/09/23 10:56:53;;;;;;;3.70;2.13;;;17.20;99.90;;;;;;5080073;28;20105;-64
2023/09/23 10:59:19;;;;;;;3.58;2.13;;;17.40;99.90;;;;;;5073102;28;20054;-63
2023/09/23 11:01:45;;;;;;;5.15;2.45;;;17.60;99.90;;;;;;5082242;28;20043;-63
2023/09/23 11:04:11;;;;;;;4.88;2.30;;;17.90;99.90;;;;;;5086990;28;20170;-63
2023/09/23 11:06:37;;;;;;;3.53;2.10;;;18.10;99.90;;;;;;5088017;28;20063;-64
2023/09/23 11:09:05;;;;;;;4.35;2.28;;;18.20;99.90;;;;;;5092203;28;20047;-64
2023/09/23 11:11:36;;;;;;;5.30;2.22;;;18.10;99.90;;;;;;5084690;28;20044;-64
2023/09/23 11:14:02;;;;;;;6.35;2.17;;;18.10;99.90;;;;;;5079557;28;20542;-64
2023/09/23 11:16:28;;;;;;;3.58;2.03;;;18.00;99.90;;;;;;5078971;28;20126;-63
2023/09/23 11:18:55;;;;;;;4.03;1.80;;;18.00;99.90;;;;;;5083811;28;20063;-62
2023/09/23 11:21:21;;;;;;;3.90;1.55;;;17.90;99.90;;;;;;5085039;28;20051;-64
2023/09/23 11:23:56;;;;;;;4.88;1.70;;;17.80;99.90;;;;;;5088641;28;20059;-63
2023/09/23 11:26:23;;;;;;;2.60;1.55;;;17.60;99.90;;;;;;5078016;28;20040;-63
2023/09/23 11:28:50;;;;;;;3.10;1.42;;;17.50;99.90;;;;;;5077964;28;20482;-63
2023/09/23 11:31:17;;;;;;;2.88;1.70;;;17.50;99.90;;;;;;5071356;28;20047;-64
2023/09/23 11:33:43;;;;;;;2.67;1.30;;;17.60;99.90;;;;;;5083057;28;20023;-64
2023/09/23 11:36:09;;;;;;;2.65;1.30;;;17.50;99.90;;;;;;5078072;28;20134;-63
2023/09/23 11:38:34;;;;;;;4.43;1.40;;;17.80;99.90;;;;;;5081595;28;20122;-63
2023/09/23 11:41:00;;;;;;;5.72;1.40;;;18.10;99.90;;;;;;5095523;28;20173;-63
2023/09/23 11:43:26;;;;;;;2.80;1.20;;;18.30;99.90;;;;;;5075362;28;20075;-63
2023/09/23 11:45:51;;;;;;;5.97;1.25;;;18.40;99.90;;;;;;5092059;28;20520;-63
2023/09/23 11:48:17;;;;;;;3.40;1.20;;;18.60;99.90;;;;;;5078662;28;20043;-63
2023/09/23 11:50:43;;;;;;;2.83;1.10;;;18.70;99.90;;;;;;5072021;28;20105;-63
2023/09/23 11:53:11;;;;;;;3.78;1.33;;;18.60;99.90;;;;;;5072224;28;20106;-63
2023/09/23 11:55:37;;;;;;;3.88;1.20;;;18.60;99.90;;;;;;5093698;28;20028;-63
2023/09/23 11:58:03;;;;;;;3.65;1.00;;;18.40;99.90;;;;;;5082585;28;20101;-64
2023/09/23 12:00:28;;;;;;;2.65;0.90;;;18.40;99.90;;;;;;5083066;28;20042;-63
2023/09/23 12:02:54;;;;;;;2.33;0.90;;;18.20;99.90;;;;;;5098227;28;20078;-63
2023/09/23 12:05:20;;;;;;;3.45;1.30;;;18.00;99.90;;;;;;5086231;28;20036;-64
2023/09/23 12:07:46;;;;;;;3.70;1.10;;;17.90;99.90;;;;;;5066134;28;20051;-64
2023/09/23 12:10:15;;;;;;;2.47;0.60;;;17.80;99.90;;;;;;5087334;28;20039;-63
2023/09/23 12:12:45;;;;;;;3.13;0.90;;;17.90;99.90;;;;;;5088156;28;20647;-64
2023/09/23 12:15:11;;;;;;;6.25;1.10;;;18.00;99.90;;;;;;5078829;28;20035;-64
2023/09/23 12:17:37;;;;;;;3.22;0.82;;;18.00;99.90;;;;;;5112113;28;20036;-64
2023/09/23 12:20:07;;;;;;;3.63;0.70;;;18.10;99.90;;;;;;5088470;28;20464;-63
2023/09/23 12:22:32;;;;;;;2.75;0.90;;;17.90;99.90;;;;;;5078800;28;20439;-63
2023/09/23 12:24:58;;;;;;;3.15;1.42;;;17.70;99.90;;;;;;5083050;28;20074;-63
2023/09/23 12:27:27;;;;;;;2.05;1.00;;;17.60;99.90;;;;;;5081410;28;20075;-63
2023/09/23 12:29:53;;;;;;;1.55;0.85;;;17.40;99.90;;;;;;5082212;28;20044;-64
2023/09/23 12:32:19;;;;;;;2.28;1.10;;;17.30;99.90;;;;;;5077684;28;20074;-63
2023/09/23 12:34:44;;;;;;;4.72;1.30;;;17.10;99.90;;;;;;5078094;28;20089;-64
2023/09/23 12:37:10;;;;;;;6.15;1.23;;;16.90;99.90;;;;;;5078440;28;20059;-64
2023/09/23 12:39:36;;;;;;;2.78;1.40;;;16.70;99.90;;;;;;5094962;28;20383;-66
2023/09/23 12:42:01;;;;;;;5.32;1.90;;;16.50;99.90;;;;;;5061718;28;20059;-67
2023/09/23 12:44:27;;;;;;;5.10;1.50;;;16.40;99.90;;;;;;5078263;28;20050;-67